Terminal Aerodrome Forecast
Issued by NWS Omaha/Valley, NE

Home | Current Version | Previous Version | Text Only | Print | Product List | Glossary Off
Versions: 1 2 3 4 5 6 7 8 9 10 11 12 13 14 15 16 17 18 19 20 21 22 23 24 25 26

000
FTUS43 KOAX 212327
TAFOFK
TAF
KOFK 212327Z 2200/2224 28004KT P6SM SCT250
     FM221100 32008KT 5SM BR OVC009
     FM221600 33012KT P6SM BKN012
     FM221800 33013KT P6SM SCT050=

USA.gov is the U.S. government's official web portal to all federal, state and local government web resources and services.